Hagarstown, Illinois
Current Conditions -  °F | °C
As of 6:55 PM on Saturday 22 Nov 2014 (Local Time) from KENL Reporting Station
Drizzle Drizzle  
Wind Chill: 53°   Ceiling: 9000
Heat Index: 53°   Visibility: 10mi
Dew Point: 45°   Wind: 9mph
Humidity: 74%   Direction: 170°S
Pressure: 29.98"   Gusts: NA
Location:  38.94°N, 89.17°W
Report Text: KENL 230055Z AUTO 17008KT 10SM -DZ OVC090 12/07 A2998 RMK AO2 T01160071
Loading
Personal Weather Stations






























Interactive Weather Map New forecast layout! Learn more

10-Day Weather Forecast

Advertisements
Track Severe Weather on mobile